Time;durP1;ratioP1;P1;durP2;ratioP2;P2;SDS_P1;SDS_P2;PMS_P1;PMS_P2;Temp;Humidity;BMP_temperature;BMP_pressure;BME280_temperature;BME280_humidity;BME280_pressure;Samples;Min_cycle;Max_cycle;Signal;HPM_P1;HPM_P2
2022/10/06 00:01:01;;;;;;;;;;;;;;;14.31;93.01;102041.88;5072242;28;19936;-66
2022/10/06 00:03:26;;;;;;;;;;;;;;;14.33;92.65;102040.16;5066565;28;19957;-66
2022/10/06 00:05:51;;;;;;;;;;;;;;;14.33;93.20;102034.88;5076597;28;20267;-66
2022/10/06 00:08:17;;;;;;;;;;;;;;;14.27;92.89;102047.97;5068353;28;19913;-66
2022/10/06 00:10:43;;;;;;;;;;;;;;;14.23;94.28;102059.34;5055534;28;20394;-67
2022/10/06 00:13:08;;;;;;;;;;;;;;;14.21;94.79;102064.63;5082008;28;19920;-67
2022/10/06 00:15:33;;;;;;;;;;;;;;;14.21;95.59;102074.34;5074924;28;19966;-64
2022/10/06 00:17:59;;;;;;;;;;;;;;;14.20;96.11;102075.19;5074294;28;20360;-66
2022/10/06 00:20:25;;;;;;;;;;;;;;;14.25;97.25;102076.19;5082405;28;20278;-65
2022/10/06 00:22:51;;;;;;;;;;;;;;;14.29;97.78;102088.63;5076720;28;19920;-66
2022/10/06 00:25:21;;;;;;;;;;;;;;;14.27;98.41;102082.38;5073508;28;20366;-66
2022/10/06 00:27:47;;;;;;;;;;;;;;;14.30;97.97;102104.53;5070235;28;19917;-66
2022/10/06 00:30:14;;;;;;;;;;;;;;;14.28;99.69;102100.06;5076657;28;20038;-66
2022/10/06 00:32:39;;;;;;;;;;;;;;;14.24;100.00;102116.75;5069723;28;20275;-67
2022/10/06 00:35:05;;;;;;;;;;;;;;;14.20;100.00;102112.25;5073099;28;19912;-66
2022/10/06 00:37:33;;;;;;;;;;;;;;;14.15;97.82;102109.50;5077038;28;20003;-67
2022/10/06 00:39:59;;;;;;;;;;;;;;;14.17;96.05;102128.94;5063314;28;19912;-66
2022/10/06 00:42:25;;;;;;;;;;;;;;;14.18;93.33;102128.09;5079222;28;19920;-65
2022/10/06 00:44:50;;;;;;;;;;;;;;;14.24;92.60;102129.97;5080054;28;20359;-66
2022/10/06 00:47:17;;;;;;;;;;;;;;;14.26;93.90;102133.56;5082509;28;19970;-66
2022/10/06 00:49:43;;;;;;;;;;;;;;;14.19;93.50;102136.94;5083201;28;20049;-66
2022/10/06 00:52:11;;;;;;;;;;;;;;;14.21;95.37;102140.50;5082862;28;19912;-66
2022/10/06 00:54:37;;;;;;;;;;;;;;;14.15;91.83;102150.09;5074132;28;20384;-66
2022/10/06 00:57:03;;;;;;;;;;;;;;;14.13;92.14;102149.19;5072771;28;19918;-67
2022/10/06 00:59:28;;;;;;;;;;;;;;;14.13;91.84;102154.47;5087990;28;20363;-67
2022/10/06 01:01:57;;;;;;;;;;;;;;;14.13;91.78;102165.06;5071701;28;19912;-67
2022/10/06 01:04:23;;;;;;;;;;;;;;;14.08;93.05;102166.72;5072673;28;19966;-66
2022/10/06 01:06:51;;;;;;;;;;;;;;;14.04;94.11;102167.50;5082023;28;19919;-65
2022/10/06 01:09:16;;;;;;;;;;;;;;;14.04;95.67;102180.72;5074739;28;19931;-67
2022/10/06 01:11:42;;;;;;;;;;;;;;;13.98;95.78;102180.56;5070452;28;19924;-66
2022/10/06 01:14:07;;;;;;;;;;;;;;;13.90;94.51;102176.84;5072318;28;19916;-66
2022/10/06 01:16:36;;;;;;;;;;;;;;;13.91;94.15;102181.28;5074879;28;20021;-67
2022/10/06 01:19:03;;;;;;;;;;;;;;;13.87;92.02;102185.59;5072255;28;19939;-66
2022/10/06 01:21:35;;;;;;;;;;;;;;;13.86;90.88;102196.16;5077723;28;20293;-66
2022/10/06 01:24:01;;;;;;;;;;;;;;;13.84;90.62;102204.06;5076280;28;19919;-66
2022/10/06 01:26:27;;;;;;;;;;;;;;;13.80;89.15;102203.06;5080952;28;20734;-67
2022/10/06 01:28:52;;;;;;;;;;;;;;;13.81;90.77;102204.00;5075846;28;19916;-67
2022/10/06 01:31:18;;;;;;;;;;;;;;;13.80;93.42;102212.78;5080873;28;19964;-66
2022/10/06 01:33:43;;;;;;;;;;;;;;;13.76;93.64;102219.72;5073875;28;19925;-66
2022/10/06 01:36:08;;;;;;;;;;;;;;;13.75;95.07;102222.34;5072379;28;19916;-67
2022/10/06 01:38:35;;;;;;;;;;;;;;;13.74;96.31;102218.81;5061705;28;19991;-65
2022/10/06 01:41:00;;;;;;;;;;;;;;;13.73;96.28;102224.06;5071125;28;19913;-66
2022/10/06 01:43:25;;;;;;;;;;;;;;;13.72;97.77;102225.78;5072154;28;20015;-65
2022/10/06 01:45:52;;;;;;;;;;;;;;;13.68;95.54;102226.56;5079899;28;19959;-66
2022/10/06 01:48:17;;;;;;;;;;;;;;;13.70;94.98;102231.91;5070317;28;20272;-66
2022/10/06 01:50:42;;;;;;;;;;;;;;;13.70;94.88;102232.81;5069716;28;19970;-67
2022/10/06 01:53:08;;;;;;;;;;;;;;;13.67;94.87;102238.00;5075282;28;19916;-67
2022/10/06 01:55:34;;;;;;;;;;;;;;;13.68;95.01;102238.91;5071598;28;19944;-65
2022/10/06 01:57:59;;;;;;;;;;;;;;;13.69;95.49;102238.94;5068428;28;19919;-66
2022/10/06 02:00:24;;;;;;;;;;;;;;;13.66;96.83;102237.13;5081942;28;19999;-66
2022/10/06 02:02:49;;;;;;;;;;;;;;;13.59;98.19;102237.81;5075742;28;19982;-66
2022/10/06 02:05:15;;;;;;;;;;;;;;;13.63;98.22;102234.41;5075434;28;19927;-66
2022/10/06 02:07:40;;;;;;;;;;;;;;;13.62;99.12;102247.59;5072216;28;19909;-66
2022/10/06 02:10:06;;;;;;;;;;;;;;;13.63;99.20;102252.00;5072699;28;19913;-66
2022/10/06 02:12:31;;;;;;;;;;;;;;;13.69;99.42;102249.53;5079435;28;20586;-66
2022/10/06 02:14:56;;;;;;;;;;;;;;;13.73;99.52;102247.88;5076878;28;19969;-65
2022/10/06 02:17:22;;;;;;;;;;;;;;;13.73;98.80;102253.16;5075739;28;20046;-66
2022/10/06 02:19:47;;;;;;;;;;;;;;;13.69;99.54;102262.75;5053266;28;19958;-65
2022/10/06 02:22:12;;;;;;;;;;;;;;;13.76;98.73;102274.41;5068720;28;20430;-66
2022/10/06 02:24:37;;;;;;;;;;;;;;;13.77;97.88;102268.25;5070761;28;19940;-67
2022/10/06 02:27:04;;;;;;;;;;;;;;;13.79;98.00;102275.34;5075779;28;19965;-67
2022/10/06 02:29:29;;;;;;;;;;;;;;;13.79;98.63;102272.72;5077838;28;20355;-66
2022/10/06 02:31:54;;;;;;;;;;;;;;;13.78;99.92;102278.88;5086484;28;19919;-65
2022/10/06 02:34:19;;;;;;;;;;;;;;;13.76;100.00;102283.22;5082873;28;19995;-67
2022/10/06 02:36:45;;;;;;;;;;;;;;;13.76;100.00;102291.16;5076217;28;20007;-66
2022/10/06 02:39:10;;;;;;;;;;;;;;;13.74;100.00;102289.31;5077579;28;19995;-65
2022/10/06 02:41:35;;;;;;;;;;;;;;;13.73;100.00;102306.97;5062432;28;19921;-66
2022/10/06 02:44:00;;;;;;;;;;;;;;;13.69;100.00;102305.09;5071810;28;19912;-66
2022/10/06 02:46:26;;;;;;;;;;;;;;;13.66;100.00;102294.44;5074301;28;19916;-66
2022/10/06 02:48:52;;;;;;;;;;;;;;;13.57;100.00;102304.75;5085889;28;20283;-67
2022/10/06 02:51:19;;;;;;;;;;;;;;;13.53;100.00;102314.34;5065465;28;19912;-67
2022/10/06 02:53:45;;;;;;;;;;;;;;;13.47;100.00;102317.72;5072771;28;19917;-66
2022/10/06 02:56:11;;;;;;;;;;;;;;;13.49;100.00;102318.63;5061639;28;20356;-66
2022/10/06 02:58:38;;;;;;;;;;;;;;;13.48;100.00;102326.53;5074543;28;20351;-67
2022/10/06 03:01:08;;;;;;;;;;;;;;;13.47;100.00;102322.13;5086122;28;19912;-67
2022/10/06 03:03:34;;;;;;;;;;;;;;;13.46;100.00;102331.78;5081048;28;19911;-66
2022/10/06 03:06:03;;;;;;;;;;;;;;;13.46;100.00;102331.78;5083109;28;19916;-66
2022/10/06 03:08:29;;;;;;;;;;;;;;;13.43;100.00;102346.66;5083043;28;19912;-65
2022/10/06 03:11:05;;;;;;;;;;;;;;;13.44;100.00;102348.44;5076989;28;19917;-65
2022/10/06 03:13:30;;;;;;;;;;;;;;;13.46;100.00;102350.28;5080688;28;19916;-65
2022/10/06 03:15:56;;;;;;;;;;;;;;;13.46;100.00;102345.00;5076900;28;19954;-65
2022/10/06 03:18:22;;;;;;;;;;;;;;;13.45;100.00;102353.78;5089992;28;19920;-66
2022/10/06 03:20:47;;;;;;;;;;;;;;;13.49;100.00;102363.59;5091012;28;19948;-66
2022/10/06 03:23:13;;;;;;;;;;;;;;;13.49;100.00;102365.34;5060910;28;19919;-67
2022/10/06 03:25:38;;;;;;;;;;;;;;;13.42;100.00;102369.56;5074567;28;19999;-66
2022/10/06 03:28:03;;;;;;;;;;;;;;;13.43;100.00;102374.00;5080764;28;19912;-66
2022/10/06 03:30:28;;;;;;;;;;;;;;;13.43;100.00;102375.72;5073912;28;20011;-66
2022/10/06 03:32:54;;;;;;;;;;;;;;;13.42;100.00;102376.63;5078647;28;19912;-66
2022/10/06 03:35:19;;;;;;;;;;;;;;;13.44;100.00;102383.75;5077589;28;19966;-66
2022/10/06 03:37:44;;;;;;;;;;;;;;;13.40;100.00;102391.53;5072278;28;19919;-66
2022/10/06 03:40:09;;;;;;;;;;;;;;;13.31;100.00;102393.00;5078926;28;19952;-66
2022/10/06 03:42:34;;;;;;;;;;;;;;;13.31;100.00;102392.13;5076612;28;19938;-66
2022/10/06 03:45:00;;;;;;;;;;;;;;;13.28;100.00;102397.28;5074103;28;19912;-66
2022/10/06 03:47:25;;;;;;;;;;;;;;;13.22;100.00;102402.41;5074447;28;19912;-67
2022/10/06 03:49:50;;;;;;;;;;;;;;;13.24;100.00;102406.91;5077240;28;19920;-67
2022/10/06 03:52:15;;;;;;;;;;;;;;;13.22;100.00;102412.97;5072155;28;19939;-67
2022/10/06 03:54:41;;;;;;;;;;;;;;;13.15;100.00;102412.78;5075899;28;20417;-67
2022/10/06 03:57:06;;;;;;;;;;;;;;;13.13;100.00;102426.78;5078802;28;19927;-66
2022/10/06 03:59:33;;;;;;;;;;;;;;;13.06;100.00;102420.44;5073554;28;19922;-67
2022/10/06 04:01:58;;;;;;;;;;;;;;;13.03;100.00;102428.25;5081043;28;19912;-66
2022/10/06 04:04:23;;;;;;;;;;;;;;;13.06;100.00;102424.81;5072107;28;19965;-66
2022/10/06 04:06:48;;;;;;;;;;;;;;;13.01;100.00;102439.63;5074724;28;19912;-67
2022/10/06 04:09:14;;;;;;;;;;;;;;;12.98;100.00;102440.41;5092397;28;20378;-67
2022/10/06 04:11:39;;;;;;;;;;;;;;;12.98;100.00;102440.41;5064470;28;20343;-66
2022/10/06 04:14:06;;;;;;;;;;;;;;;13.00;100.00;102449.31;5052794;28;19916;-66
2022/10/06 04:16:36;;;;;;;;;;;;;;;12.96;100.00;102450.06;5053893;28;19959;-67
2022/10/06 04:19:03;;;;;;;;;;;;;;;12.93;100.00;102448.19;5051736;28;19964;-66
2022/10/06 04:21:29;;;;;;;;;;;;;;;12.91;100.00;102459.56;5048688;28;20276;-66
2022/10/06 04:23:55;;;;;;;;;;;;;;;12.89;100.00;102456.00;5053003;28;19951;-66
2022/10/06 04:26:22;;;;;;;;;;;;;;;12.85;100.00;102459.38;5046962;28;19941;-66
2022/10/06 04:28:48;;;;;;;;;;;;;;;12.88;100.00;102456.84;5051981;28;19913;-66
2022/10/06 04:31:23;;;;;;;;;;;;;;;12.84;100.00;102470.78;5053861;28;19913;-66
2022/10/06 04:33:52;;;;;;;;;;;;;;;12.81;100.00;102477.75;5043286;28;19916;-66
2022/10/06 04:36:22;;;;;;;;;;;;;;;12.81;100.00;102477.75;5052429;28;19913;-66
2022/10/06 04:38:52;;;;;;;;;;;;;;;12.71;100.00;102473.03;5050824;28;19919;-66
2022/10/06 04:41:19;;;;;;;;;;;;;;;12.71;100.00;102467.75;5048280;28;20360;-66
2022/10/06 04:43:47;;;;;;;;;;;;;;;12.68;100.00;102475.53;5048580;28;19923;-66
2022/10/06 04:46:13;;;;;;;;;;;;;;;12.64;100.00;102471.91;5052351;28;19919;-66
2022/10/06 04:48:39;;;;;;;;;;;;;;;12.61;100.00;102477.06;5053200;28;20349;-66
2022/10/06 04:51:06;;;;;;;;;;;;;;;12.61;100.00;102481.47;5058824;28;19912;-66
2022/10/06 04:53:31;;;;;;;;;;;;;;;12.55;100.00;102481.25;5046688;28;20272;-66
2022/10/06 04:56:04;;;;;;;;;;;;;;;12.53;100.00;102488.22;5050754;28;19916;-66
2022/10/06 04:58:34;;;;;;;;;;;;;;;12.51;100.00;102489.91;5051064;28;19917;-66
2022/10/06 05:01:00;;;;;;;;;;;;;;;12.48;100.00;102496.00;5048022;28;19920;-67
2022/10/06 05:03:27;;;;;;;;;;;;;;;12.43;100.00;102498.44;5050181;28;20280;-66
2022/10/06 05:05:52;;;;;;;;;;;;;;;12.37;100.00;102510.53;5049279;28;19921;-67
2022/10/06 05:08:17;;;;;;;;;;;;;;;12.31;100.00;102509.47;5052617;28;19952;-66
2022/10/06 05:10:42;;;;;;;;;;;;;;;12.29;100.00;102516.44;5044344;28;19967;-67
2022/10/06 05:13:10;;;;;;;;;;;;;;;12.34;100.00;102528.91;5076649;28;19916;-67
2022/10/06 05:15:35;;;;;;;;;;;;;;;12.27;100.00;102527.78;5073925;28;20021;-66
2022/10/06 05:18:00;;;;;;;;;;;;;;;12.26;100.00;102525.97;5079675;28;19912;-67
2022/10/06 05:20:26;;;;;;;;;;;;;;;12.25;100.00;102518.91;5070826;28;19939;-66
2022/10/06 05:22:51;;;;;;;;;;;;;;;12.23;100.00;102533.78;5069727;28;19944;-67
2022/10/06 05:25:17;;;;;;;;;;;;;;;12.21;100.00;102531.09;5075612;28;19947;-66
2022/10/06 05:27:42;;;;;;;;;;;;;;;12.14;100.00;102531.72;5081551;28;20422;-67
2022/10/06 05:30:07;;;;;;;;;;;;;;;12.13;100.00;102540.47;5073725;28;20307;-66
2022/10/06 05:32:33;;;;;;;;;;;;;;;12.12;100.00;102543.94;5082891;28;19916;-66
2022/10/06 05:34:58;;;;;;;;;;;;;;;12.10;100.00;102540.34;5080895;28;19916;-66
2022/10/06 05:37:24;;;;;;;;;;;;;;;12.04;100.00;102546.28;5076581;28;19915;-66
2022/10/06 05:39:49;;;;;;;;;;;;;;;12.02;100.00;102553.25;5078282;28;20264;-67
2022/10/06 05:42:14;;;;;;;;;;;;;;;11.97;100.00;102560.09;5075011;28;19912;-66
2022/10/06 05:44:40;;;;;;;;;;;;;;;12.00;100.00;102560.22;5074633;28;19916;-66
2022/10/06 05:47:05;;;;;;;;;;;;;;;11.94;100.00;102571.44;5074335;28;19919;-66
2022/10/06 05:49:30;;;;;;;;;;;;;;;11.94;100.00;102570.50;5073743;28;19912;-65
2022/10/06 05:51:55;;;;;;;;;;;;;;;11.94;100.00;102586.34;5075895;28;20409;-73
2022/10/06 05:54:21;;;;;;;;;;;;;;;11.93;100.00;102584.53;5075429;28;20342;-66
2022/10/06 05:56:46;;;;;;;;;;;;;;;11.92;100.00;102577.44;5070426;28;19912;-67
2022/10/06 05:59:11;;;;;;;;;;;;;;;11.92;100.00;102581.00;5066247;28;20005;-67
2022/10/06 06:01:40;;;;;;;;;;;;;;;11.89;100.00;102578.22;5075810;28;19908;-67
2022/10/06 06:04:07;;;;;;;;;;;;;;;11.90;100.00;102585.31;5075002;28;19965;-67
2022/10/06 06:06:40;;;;;;;;;;;;;;;11.89;100.00;102578.22;5078882;28;19926;-67
2022/10/06 06:09:05;;;;;;;;;;;;;;;11.89;100.00;102580.84;5078204;28;20330;-67
2022/10/06 06:11:31;;;;;;;;;;;;;;;11.87;100.00;102589.56;5082947;28;19963;-67
2022/10/06 06:13:56;;;;;;;;;;;;;;;11.85;100.00;102592.13;5076054;28;19916;-67
2022/10/06 06:16:22;;;;;;;;;;;;;;;11.85;100.00;102592.13;5075121;28;20271;-67
2022/10/06 06:18:47;;;;;;;;;;;;;;;11.85;100.00;102593.88;5079730;28;19959;-67
2022/10/06 06:21:12;;;;;;;;;;;;;;;11.86;100.00;102603.59;5075488;28;19991;-66
2022/10/06 06:23:43;;;;;;;;;;;;;;;11.81;100.00;102611.31;5075202;28;19918;-67
2022/10/06 06:26:10;;;;;;;;;;;;;;;11.80;100.00;102615.69;5074612;28;20426;-67
2022/10/06 06:28:39;;;;;;;;;;;;;;;11.79;100.00;102619.16;5075009;28;19908;-66
2022/10/06 06:31:09;;;;;;;;;;;;;;;11.81;100.00;102617.50;5072981;28;19913;-66
2022/10/06 06:33:36;;;;;;;;;;;;;;;11.82;100.00;102624.56;5071328;28;19916;-66
2022/10/06 06:36:02;;;;;;;;;;;;;;;11.86;100.00;102627.34;5074400;28;20373;-66
2022/10/06 06:38:28;;;;;;;;;;;;;;;11.87;100.00;102626.47;5075847;28;20027;-67
2022/10/06 06:40:53;;;;;;;;;;;;;;;11.92;100.00;102630.22;5068296;28;19912;-66
2022/10/06 06:43:19;;;;;;;;;;;;;;;11.92;100.00;102628.50;5075077;28;19920;-67
2022/10/06 06:45:44;;;;;;;;;;;;;;;11.94;100.00;102639.09;5074004;28;19912;-66
2022/10/06 06:48:12;;;;;;;;;;;;;;;11.97;100.00;102639.25;5075127;28;20006;-68
2022/10/06 06:50:37;;;;;;;;;;;;;;;12.01;100.00;102646.44;5075378;28;19908;-68
2022/10/06 06:53:02;;;;;;;;;;;;;;;12.06;100.00;102649.25;5075107;28;19908;-67
2022/10/06 06:55:28;;;;;;;;;;;;;;;12.12;100.00;102654.78;5073682;28;20348;-67
2022/10/06 06:57:53;;;;;;;;;;;;;;;12.18;100.00;102651.47;5075658;28;19912;-66
2022/10/06 07:00:18;;;;;;;;;;;;;;;12.24;100.00;102664.94;5074186;28;19951;-67
2022/10/06 07:02:43;;;;;;;;;;;;;;;12.27;100.00;102662.41;5074995;28;19916;-68
2022/10/06 07:05:10;;;;;;;;;;;;;;;12.36;100.00;102678.59;5055782;28;19935;-66
2022/10/06 07:07:35;;;;;;;;;;;;;;;12.41;100.00;102687.59;5074221;28;19908;-66
2022/10/06 07:10:00;;;;;;;;;;;;;;;12.47;100.00;102681.66;5074225;28;20274;-66
2022/10/06 07:12:26;;;;;;;;;;;;;;;12.54;100.00;102691.59;5074448;28;19916;-66
2022/10/06 07:25:47;;;;;;;;;;;;;;;12.79;100.00;102718.94;5059873;28;19919;-66
2022/10/06 07:28:12;;;;;;;;;;;;;;;12.85;100.00;102713.91;5074188;28;19916;-66
2022/10/06 07:30:37;;;;;;;;;;;;;;;12.94;100.00;102718.59;5074402;28;19919;-66
2022/10/06 07:33:04;;;;;;;;;;;;;;;12.98;100.00;102720.53;5074331;28;20241;-66
2022/10/06 07:35:29;;;;;;;;;;;;;;;13.05;100.00;102719.00;5056401;28;19913;-67
2022/10/06 07:37:56;;;;;;;;;;;;;;;13.08;100.00;102722.66;5054189;28;19909;-66
2022/10/06 07:40:22;;;;;;;;;;;;;;;13.09;100.00;102724.47;5055180;28;19963;-66
2022/10/06 07:42:47;;;;;;;;;;;;;;;13.15;100.00;102723.78;5054099;28;19912;-66
2022/10/06 07:48:00;;;;;;;;;;;;;;;13.26;100.00;102726.81;5043761;28;19990;-67
2022/10/06 07:50:26;;;;;;;;;;;;;;;13.31;100.00;102736.72;5053306;28;20329;-67
2022/10/06 07:52:51;;;;;;;;;;;;;;;13.33;100.00;102729.75;5053329;28;19908;-67
2022/10/06 07:55:17;;;;;;;;;;;;;;;13.39;100.00;102744.97;5058691;28;19912;-65
2022/10/06 07:57:45;;;;;;;;;;;;;;;13.49;100.00;102741.78;5072801;28;19918;-67
2022/10/06 08:00:11;;;;;;;;;;;;;;;13.56;100.00;102749.94;5071677;28;19908;-67
2022/10/06 08:02:37;;;;;;;;;;;;;;;13.66;100.00;102749.44;5053995;28;19966;-68
2022/10/06 08:05:03;;;;;;;;;;;;;;;13.72;100.00;102754.91;5053238;28;20407;-68
2022/10/06 08:07:28;;;;;;;;;;;;;;;13.76;100.00;102762.09;5053313;28;19943;-66
2022/10/06 08:09:53;;;;;;;;;;;;;;;13.82;100.00;102772.91;5053694;28;19955;-66
2022/10/06 08:12:52;;;;;;;;;;;;;;;13.88;100.00;102777.50;5054549;28;19916;-66
2022/10/06 08:15:11;;;;;;;;;;;;;;;13.98;100.00;102784.00;5049582;28;20367;-66
2022/10/06 08:17:37;;;;;;;;;;;;;;;14.03;100.00;102787.72;5053802;28;19909;-66
2022/10/06 08:20:03;;;;;;;;;;;;;;;14.08;100.00;102778.19;5053523;28;19919;-66
2022/10/06 08:22:29;;;;;;;;;;;;;;;14.12;100.00;102787.09;5053461;28;19991;-66
2022/10/06 08:24:57;;;;;;;;;;;;;;;14.16;100.00;102779.34;5053604;28;20324;-67
2022/10/06 08:27:28;;;;;;;;;;;;;;;14.12;100.00;102782.72;5053669;28;19920;-66
2022/10/06 08:29:54;;;;;;;;;;;;;;;14.11;100.00;102783.56;5052342;28;20364;-67
2022/10/06 08:32:22;;;;;;;;;;;;;;;14.06;100.00;102798.41;5043076;28;19920;-66
2022/10/06 08:34:48;;;;;;;;;;;;;;;14.11;100.00;102791.50;5050667;28;19921;-66
2022/10/06 08:37:14;;;;;;;;;;;;;;;14.18;99.12;102804.97;5053330;28;19916;-67
2022/10/06 08:39:41;;;;;;;;;;;;;;;14.28;97.76;102807.97;5052021;28;19908;-66
2022/10/06 08:42:09;;;;;;;;;;;;;;;14.41;96.57;102803.97;5051260;28;19913;-66
2022/10/06 08:44:40;;;;;;;;;;;;;;;14.61;92.47;102806.31;5052378;28;19920;-68
2022/10/06 08:47:12;;;;;;;;;;;;;;;14.75;90.81;102820.06;5053138;28;19940;-68
2022/10/06 08:49:45;;;;;;;;;;;;;;;14.84;92.36;102812.41;5052789;28;20343;-68
2022/10/06 08:52:29;;;;;;;;;;;;;;;14.94;93.68;102821.53;5053081;28;19944;-69
2022/10/06 08:54:57;;;;;;;;;;;;;;;15.14;92.79;102825.66;5052858;28;20059;-67
2022/10/06 08:57:34;;;;;;;;;;;;;;;15.17;89.04;102832.81;5053194;28;19912;-68
2022/10/06 09:00:02;;;;;;;;;;;;;;;15.31;84.51;102835.88;5053037;28;19934;-68
2022/10/06 09:02:29;;;;;;;;;;;;;;;15.47;85.27;102831.91;5052852;28;20775;-66
2022/10/06 09:04:56;;;;;;;;;;;;;;;15.42;83.82;102830.88;5052886;28;19931;-67
2022/10/06 09:07:30;;;;;;;;;;;;;;;15.49;83.60;102840.78;5052839;28;19909;-67
2022/10/06 09:10:03;;;;;;;;;;;;;;;15.51;83.05;102850.59;5055162;28;19912;-67
2022/10/06 09:12:33;;;;;;;;;;;;;;;15.42;80.40;102847.69;5063587;28;19916;-67
2022/10/06 09:15:13;;;;;;;;;;;;;;;15.50;82.51;102854.13;5072920;28;19916;-68
2022/10/06 09:17:48;;;;;;;;;;;;;;;15.64;77.33;102853.59;5073161;28;20397;-68
2022/10/06 09:20:19;;;;;;;;;;;;;;;15.72;77.48;102854.72;5073031;28;19909;-67
2022/10/06 09:22:46;;;;;;;;;;;;;;;15.62;75.48;102855.31;5071866;28;19912;-68
2022/10/06 09:25:20;;;;;;;;;;;;;;;15.59;76.05;102852.59;5072678;28;19921;-67
2022/10/06 09:27:49;;;;;;;;;;;;;;;15.42;79.33;102854.75;5072760;28;19912;-68
2022/10/06 09:30:14;;;;;;;;;;;;;;;15.50;80.72;102848.81;5073941;28;20298;-67
2022/10/06 09:32:45;;;;;;;;;;;;;;;15.67;80.80;102854.59;5072752;28;19915;-67
2022/10/06 09:35:21;;;;;;;;;;;;;;;15.92;79.74;102862.34;5072544;28;19922;-67
2022/10/06 09:37:55;;;;;;;;;;;;;;;16.28;81.42;102857.09;5054592;28;19944;-67
2022/10/06 09:40:36;;;;;;;;;;;;;;;16.58;81.36;102852.53;5072176;28;19999;-68
2022/10/06 09:43:02;;;;;;;;;;;;;;;16.65;73.81;102859.78;5072381;28;20395;-67
2022/10/06 09:45:28;;;;;;;;;;;;;;;16.58;75.80;102850.75;5072398;28;19991;-67
2022/10/06 09:47:53;;;;;;;;;;;;;;;16.75;78.00;102859.09;5072440;28;20394;-67
2022/10/06 09:50:21;;;;;;;;;;;;;;;16.85;76.28;102863.78;5071349;28;19919;-67
2022/10/06 09:53:09;;;;;;;;;;;;;;;17.04;68.00;102861.59;5072703;28;20344;-67
2022/10/06 09:55:37;;;;;;;;;;;;;;;17.00;66.57;102865.03;5072116;28;19998;-67
2022/10/06 09:58:33;;;;;;;;;;;;;;;17.06;69.53;102858.94;5072340;28;19961;-68
2022/10/06 10:01:04;;;;;;;;;;;;;;;17.06;66.07;102865.16;5038432;28;19908;-68
2022/10/06 10:03:40;;;;;;;;;;;;;;;16.88;67.99;102876.25;5071217;28;20330;-67
2022/10/06 10:06:05;;;;;;;;;;;;;;;17.13;71.79;102875.09;5071182;28;19912;-67
2022/10/06 10:08:31;;;;;;;;;;;;;;;17.34;73.76;102871.09;5054077;28;19995;-68
2022/10/06 10:12:23;;;;;;;;;;;;;;;17.36;64.17;102877.31;5072270;28;19915;-67
2022/10/06 10:13:56;;;;;;;;;;;;;;;17.28;64.37;102865.63;5071904;28;20301;-66
2022/10/06 10:16:25;;;;;;;;;;;;;;;17.33;64.89;102869.28;5074083;28;19912;-67
2022/10/06 10:18:51;;;;;;;;;;;;;;;17.14;66.75;102873.31;5075935;28;20364;-68
2022/10/06 10:21:24;;;;;;;;;;;;;;;17.34;65.71;102873.75;5075502;28;19908;-67
2022/10/06 10:23:54;;;;;;;;;;;;;;;17.51;67.94;102892.72;5075672;28;19912;-66
2022/10/06 10:26:25;;;;;;;;;;;;;;;17.31;64.47;102894.97;5077936;28;19909;-67
2022/10/06 10:29:09;;;;;;;;;;;;;;;17.63;69.06;102889.41;5075860;28;19958;-67
2022/10/06 10:31:34;;;;;;;;;;;;;;;17.93;62.87;102888.25;5075860;28;19913;-67
2022/10/06 10:34:06;;;;;;;;;;;;;;;18.01;61.38;102897.28;5075702;28;19912;-67
2022/10/06 10:36:49;;;;;;;;;;;;;;;17.81;56.68;102899.53;5075368;28;19961;-68
2022/10/06 10:39:19;;;;;;;;;;;;;;;17.63;58.08;102905.38;5075722;28;19934;-67
2022/10/06 10:41:48;;;;;;;;;;;;;;;17.27;59.20;102906.38;5075815;28;20274;-66
2022/10/06 10:44:34;;;;;;;;;;;;;;;17.24;58.69;102911.66;5073909;28;20375;-67
2022/10/06 10:47:19;;;;;;;;;;;;;;;17.33;58.28;102896.78;5054847;28;19913;-67
2022/10/06 10:49:49;;;;;;;;;;;;;;;17.30;59.86;102904.72;5048638;28;19909;-68
2022/10/06 10:52:19;;;;;;;;;;;;;;;17.53;59.14;102899.88;5075407;28;20003;-68
2022/10/06 10:54:50;;;;;;;;;;;;;;;17.60;57.94;102910.66;5074042;28;19973;-68
2022/10/06 10:57:17;;;;;;;;;;;;;;;17.48;58.35;102906.84;5075374;28;19912;-68
2022/10/06 10:59:52;;;;;;;;;;;;;;;17.61;58.63;102902.69;5075132;28;19913;-68
2022/10/06 11:02:19;;;;;;;;;;;;;;;17.78;58.85;102900.34;5074994;28;19914;-68
2022/10/06 11:04:46;;;;;;;;;;;;;;;18.07;58.27;102908.06;5078405;28;19912;-68
2022/10/06 11:07:32;;;;;;;;;;;;;;;18.28;58.37;102909.31;5073171;28;20011;-68
2022/10/06 11:10:06;;;;;;;;;;;;;;;18.79;56.78;102908.38;5066202;28;19935;-68
2022/10/06 11:12:32;;;;;;;;;;;;;;;19.23;57.14;102906.38;5074356;28;19956;-69
2022/10/06 11:15:16;;;;;;;;;;;;;;;19.29;53.59;102906.44;5074512;28;19977;-68
2022/10/06 11:17:45;;;;;;;;;;;;;;;19.06;51.96;102909.72;5074540;28;20364;-69
2022/10/06 11:20:29;;;;;;;;;;;;;;;18.05;54.50;102909.78;5072715;28;19970;-68
2022/10/06 11:22:57;;;;;;;;;;;;;;;18.17;55.60;102915.34;5074117;28;19912;-69
2022/10/06 11:25:33;;;;;;;;;;;;;;;18.65;55.10;102917.91;5076716;28;19916;-69
2022/10/06 11:28:34;;;;;;;;;;;;;;;18.90;52.80;102911.25;5072819;28;19951;-66
2022/10/06 11:31:02;;;;;;;;;;;;;;;19.00;54.14;102917.59;5011588;28;20362;-67
2022/10/06 11:33:30;;;;;;;;;;;;;;;19.64;52.92;102908.66;5058985;28;20259;-68
2022/10/06 11:35:56;;;;;;;;;;;;;;;19.95;51.56;102909.03;5072094;28;19926;-68
2022/10/06 11:38:21;;;;;;;;;;;;;;;19.98;50.10;102914.41;5073262;28;20442;-66
2022/10/06 11:40:50;;;;;;;;;;;;;;;19.81;49.95;102915.13;5073536;28;19955;-68
2022/10/06 11:43:27;;;;;;;;;;;;;;;19.97;50.81;102918.88;5073106;28;19908;-67
2022/10/06 11:46:18;;;;;;;;;;;;;;;19.85;50.16;102922.28;5073440;28;19919;-68
2022/10/06 11:48:45;;;;;;;;;;;;;;;19.91;50.03;102934.81;5069578;28;19919;-68
2022/10/06 11:51:22;;;;;;;;;;;;;;;19.76;51.04;102927.50;5073163;28;20334;-68
2022/10/06 11:53:47;;;;;;;;;;;;;;;19.53;50.17;102922.78;5073848;28;19966;-68
2022/10/06 11:56:16;;;;;;;;;;;;;;;19.53;50.80;102921.88;5073452;28;20315;-68
2022/10/06 11:58:53;;;;;;;;;;;;;;;19.50;50.26;102906.72;5073904;28;19915;-68
2022/10/06 12:01:33;;;;;;;;;;;;;;;19.99;49.41;102917.09;5052443;28;19960;-68
2022/10/06 12:04:07;;;;;;;;;;;;;;;20.39;48.96;102921.94;5071562;28;19912;-69
2022/10/06 12:06:45;;;;;;;;;;;;;;;20.24;47.10;102914.69;5065761;28;20682;-68
2022/10/06 12:09:27;;;;;;;;;;;;;;;20.12;47.33;102912.78;5073118;28;20012;-67
2022/10/06 12:11:54;;;;;;;;;;;;;;;19.86;48.84;102912.53;5072842;28;19952;-67
2022/10/06 12:14:22;;;;;;;;;;;;;;;20.20;47.36;102920.88;5073021;28;19916;-68
2022/10/06 12:16:50;;;;;;;;;;;;;;;19.97;46.72;102915.31;5072141;28;19915;-68
2022/10/06 12:19:28;;;;;;;;;;;;;;;19.75;47.93;102919.47;5072513;28;19913;-69
2022/10/06 12:21:59;;;;;;;;;;;;;;;19.57;49.86;102914.81;5072467;28;19913;-68
2022/10/06 12:24:43;;;;;;;;;;;;;;;20.44;48.69;102914.84;5072544;28;19914;-68
2022/10/06 12:27:22;;;;;;;;;;;;;;;21.08;46.89;102912.66;5054598;28;20486;-66
2022/10/06 12:29:50;;;;;;;;;;;;;;;20.64;47.05;102911.44;5072485;28;19938;-69
2022/10/06 12:32:21;;;;;;;;;;;;;;;20.69;45.80;102907.94;5074480;28;20265;-68
2022/10/06 12:34:55;;;;;;;;;;;;;;;20.22;46.97;102908.41;5071394;28;20022;-67
2022/10/06 12:37:41;;;;;;;;;;;;;;;20.55;47.91;102918.53;5054617;28;20376;-68
2022/10/06 12:40:25;;;;;;;;;;;;;;;20.63;46.34;102912.31;5072394;28;19908;-69
2022/10/06 12:42:50;;;;;;;;;;;;;;;20.62;46.77;102910.53;5072708;28;19908;-67
2022/10/06 12:45:15;;;;;;;;;;;;;;;20.45;47.20;102916.63;5072520;28;19908;-68
2022/10/06 12:47:42;;;;;;;;;;;;;;;20.20;47.03;102911.09;5072478;28;19913;-67
2022/10/06 12:50:18;;;;;;;;;;;;;;;20.72;46.58;102915.13;5072427;28;19912;-67
2022/10/06 12:52:52;;;;;;;;;;;;;;;20.63;47.08;102909.66;5072705;28;19916;-68